Private Wetterstation Wechselburg
Wetterdaten: Donnerstag, 28.06.2012
Datum Zeit Temp. +2m Bodentemp. Temp.+5cm Temp. Wind Windchill X Diff Temp. Feuchte +2m Feuchte +5cm Sonnenschein Luftdruck Regen Wind Richtung Richtung Sonnenschein UV Taupunkt Windchill Windben
28.06.2012 00:00 16,0 C 22,9 C 16,4 C 16,2 C 16,2 C 0,2 C 89 % 95 % 0 % 1015,2 hPa 0,0 l/m 0,2 km/h (0 Bft) W-SW 247 0 min 0,0 UV-I 14,2 C 16,2 C 0,0 km/h (0 Bft)
28.06.2012 00:11 16,0 C 22,9 C 16,4 C 16,3 C 16,3 C 0,3 C 89 % 95 % 0 % 1015,2 hPa 0,0 l/m 0,0 km/h (0 Bft) N 0 0 min 0,0 UV-I 14,2 C 16,3 C 0,0 km/h (0 Bft)
28.06.2012 00:20 16,0 C 22,9 C 16,4 C 16,3 C 16,3 C 0,3 C 90 % 95 % 0 % 1015,2 hPa 0,0 l/m 0,3 km/h (0 Bft) W-SW 247 0 min 0,0 UV-I 14,4 C 16,3 C 0,0 km/h (0 Bft)
28.06.2012 00:25 16,0 C 22,9 C 16,4 C 16,1 C 16,1 C 0,1 C 90 % 95 % 0 % 1015,1 hPa 0,0 l/m 0,0 km/h (0 Bft) N 360 0 min 0,0 UV-I 14,4 C 16,1 C 0,0 km/h (0 Bft)
28.06.2012 00:30 16,0 C 22,9 C 16,4 C 16,1 C 16,1 C 0,1 C 90 % 95 % 0 % 1015,1 hPa 0,0 l/m 0,2 km/h (0 Bft) W-SW 247 0 min 0,0 UV-I 14,4 C 16,1 C 0,0 km/h (0 Bft)
28.06.2012 00:35 16,0 C 22,9 C 16,4 C 16,1 C 16,1 C 0,1 C 90 % 95 % 0 % 1015,1 hPa 0,0 l/m 0,2 km/h (0 Bft) S-SW 202 0 min 0,0 UV-I 14,4 C 16,1 C 0,0 km/h (0 Bft)
28.06.2012 00:40 15,9 C 22,9 C 16,4 C 16,1 C 16,1 C 0,2 C 89 % 95 % 0 % 1015,1 hPa 0,0 l/m 0,0 km/h (0 Bft) SW 225 0 min 0,0 UV-I 14,1 C 16,1 C 2,1 km/h (1 Bft)
28.06.2012 00:45 16,0 C 22,9 C 16,4 C 16,3 C 16,3 C 0,3 C 90 % 95 % 0 % 1015,1 hPa 0,0 l/m 0,2 km/h (0 Bft) O-SO 112 0 min 0,0 UV-I 14,4 C 16,3 C 0,0 km/h (0 Bft)
28.06.2012 00:50 16,0 C 22,9 C 16,5 C 16,3 C 16,3 C 0,3 C 90 % 95 % 0 % 1015,1 hPa 0,0 l/m 0,2 km/h (0 Bft) S 180 0 min 0,0 UV-I 14,4 C 16,3 C 0,0 km/h (0 Bft)
28.06.2012 00:55 16,0 C 22,9 C 16,5 C 16,4 C 16,4 C 0,4 C 90 % 95 % 0 % 1015,1 hPa 0,0 l/m 0,0 km/h (0 Bft) W-SW 247 0 min 0,0 UV-I 14,4 C 16,4 C 0,0 km/h (0 Bft)
28.06.2012 01:00 16,1 C 22,9 C 16,4 C 16,4 C 16,4 C 0,3 C 90 % 95 % 0 % 1015,1 hPa 0,0 l/m 0,0 km/h (0 Bft) SW 225 0 min 0,0 UV-I 14,5 C 16,4 C 0,0 km/h (0 Bft)
28.06.2012 01:11 16,1 C 22,9 C 16,5 C 16,4 C 16,4 C 0,3 C 90 % 95 % 0 % 1015,1 hPa 0,0 l/m 0,0 km/h (0 Bft) N 0 0 min 0,0 UV-I 14,5 C 16,4 C 0,0 km/h (0 Bft)
28.06.2012 01:20 16,0 C 22,9 C 16,4 C 16,5 C 16,5 C 0,5 C 90 % 95 % 0 % 1015,1 hPa 0,0 l/m 0,0 km/h (0 Bft) S 180 0 min 0,0 UV-I 14,4 C 16,5 C 0,0 km/h (0 Bft)
28.06.2012 01:25 16,1 C 22,8 C 16,5 C 16,5 C 16,5 C 0,4 C 90 % 95 % 0 % 1015,1 hPa 0,0 l/m 0,2 km/h (0 Bft) SW 225 0 min 0,0 UV-I 14,5 C 16,5 C 2,1 km/h (1 Bft)
28.06.2012 01:30 16,1 C 22,8 C 16,5 C 16,5 C 16,5 C 0,4 C 90 % 95 % 0 % 1015,1 hPa 0,0 l/m 0,3 km/h (0 Bft) W-SW 247 0 min 0,0 UV-I 14,5 C 16,5 C 0,0 km/h (0 Bft)
28.06.2012 01:35 16,1 C 22,8 C 16,5 C 16,4 C 16,4 C 0,3 C 90 % 95 % 0 % 1015,1 hPa 0,0 l/m 0,3 km/h (0 Bft) SW 225 0 min 0,0 UV-I 14,5 C 16,4 C 0,0 km/h (0 Bft)
28.06.2012 01:40 16,0 C 22,8 C 16,5 C 16,4 C 16,4 C 0,4 C 90 % 95 % 0 % 1015,1 hPa 0,0 l/m 0,2 km/h (0 Bft) W-SW 247 0 min 0,0 UV-I 14,4 C 16,4 C 1,9 km/h (1 Bft)
28.06.2012 01:45 16,0 C 22,8 C 16,5 C 16,3 C 16,3 C 0,3 C 90 % 95 % 0 % 1015,2 hPa 0,0 l/m 0,6 km/h (0 Bft) SW 225 0 min 0,0 UV-I 14,4 C 16,3 C 0,0 km/h (0 Bft)
28.06.2012 01:50 16,0 C 22,8 C 16,5 C 16,2 C 16,2 C 0,2 C 90 % 95 % 0 % 1015,2 hPa 0,0 l/m 0,6 km/h (0 Bft) SO 135 0 min 0,0 UV-I 14,4 C 16,2 C 0,0 km/h (0 Bft)
28.06.2012 01:55 16,0 C 22,8 C 16,4 C 16,1 C 16,1 C 0,1 C 90 % 95 % 0 % 1015,2 hPa 0,0 l/m 0,0 km/h (0 Bft) W 270 0 min 0,0 UV-I 14,4 C 16,1 C 0,0 km/h (0 Bft)
28.06.2012 02:00 16,0 C 22,8 C 16,4 C 16,1 C 16,1 C 0,1 C 90 % 95 % 0 % 1015,2 hPa 0,0 l/m 0,0 km/h (0 Bft) W-SW 247 0 min 0,0 UV-I 14,4 C 16,1 C 0,0 km/h (0 Bft)
28.06.2012 02:11 15,9 C 22,8 C 16,4 C 16,1 C 16,1 C 0,2 C 90 % 95 % 0 % 1015,0 hPa 0,0 l/m 1,4 km/h (1 Bft) N 0 0 min 0,0 UV-I 14,3 C 16,1 C 4,2 km/h (1 Bft)
28.06.2012 02:20 15,9 C 22,8 C 16,4 C 15,9 C 15,9 C 0,0 C 90 % 95 % 0 % 1015,0 hPa 0,0 l/m 1,3 km/h (1 Bft) W-SW 247 0 min 0,0 UV-I 14,3 C 15,9 C 0,0 km/h (0 Bft)
28.06.2012 02:25 15,7 C 22,8 C 16,3 C 15,6 C 15,5 C 0,0 C 90 % 96 % 0 % 1014,9 hPa 0,0 l/m 0,5 km/h (0 Bft) SW 225 0 min 0,0 UV-I 14,1 C 15,5 C 0,0 km/h (0 Bft)
28.06.2012 02:30 15,6 C 22,8 C 16,3 C 15,5 C 15,4 C 0,0 C 90 % 96 % 0 % 1014,9 hPa 0,0 l/m 0,2 km/h (0 Bft) S 180 0 min 0,0 UV-I 14,0 C 15,4 C 0,0 km/h (0 Bft)
28.06.2012 02:35 15,5 C 22,8 C 16,2 C 15,4 C 15,2 C 0,0 C 90 % 96 % 0 % 1014,9 hPa 0,0 l/m 0,0 km/h (0 Bft) SO 135 0 min 0,0 UV-I 13,9 C 15,2 C 0,0 km/h (0 Bft)
28.06.2012 02:40 15,4 C 22,8 C 16,3 C 15,3 C 15,2 C 0,0 C 90 % 96 % 0 % 1014,9 hPa 0,0 l/m 0,0 km/h (0 Bft) SW 225 0 min 0,0 UV-I 13,8 C 15,2 C 0,0 km/h (0 Bft)
28.06.2012 02:45 15,4 C 22,8 C 16,3 C 15,3 C 15,1 C 0,0 C 90 % 96 % 0 % 1015,1 hPa 0,0 l/m 0,0 km/h (0 Bft) S-SW 202 0 min 0,0 UV-I 13,8 C 15,1 C 0,0 km/h (0 Bft)
28.06.2012 02:50 15,3 C 22,7 C 16,3 C 15,2 C 15,1 C 0,0 C 90 % 96 % 0 % 1015,1 hPa 0,0 l/m 0,0 km/h (0 Bft) SO 135 0 min 0,0 UV-I 13,7 C 15,1 C 0,0 km/h (0 Bft)
28.06.2012 02:55 15,2 C 22,7 C 16,2 C 15,2 C 15,1 C 0,0 C 90 % 96 % 0 % 1015,1 hPa 0,0 l/m 0,0 km/h (0 Bft) S-SW 202 0 min 0,0 UV-I 13,6 C 15,1 C 0,0 km/h (0 Bft)
28.06.2012 03:00 15,2 C 22,7 C 16,2 C 15,2 C 15,1 C 0,0 C 90 % 96 % 0 % 1015,1 hPa 0,0 l/m 0,0 km/h (0 Bft) S-SO 157 0 min 0,0 UV-I 13,6 C 15,1 C 0,0 km/h (0 Bft)
28.06.2012 03:11 15,2 C 22,7 C 16,1 C 15,3 C 15,3 C 0,1 C 90 % 96 % 0 % 1014,9 hPa 0,0 l/m 0,0 km/h (0 Bft) N 0 0 min 0,0 UV-I 13,6 C 15,3 C 0,0 km/h (0 Bft)
28.06.2012 03:20 15,1 C 22,7 C 16,1 C 15,2 C 15,2 C 0,1 C 90 % 96 % 0 % 1014,9 hPa 0,0 l/m 0,0 km/h (0 Bft) S-SO 157 0 min 0,0 UV-I 13,5 C 15,2 C 0,0 km/h (0 Bft)
28.06.2012 03:25 15,1 C 22,7 C 16,1 C 15,1 C 15,0 C 0,0 C 90 % 96 % 0 % 1014,7 hPa 0,0 l/m 0,0 km/h (0 Bft) S-SO 157 0 min 0,0 UV-I 13,5 C 15,0 C 0,0 km/h (0 Bft)
28.06.2012 03:30 15,1 C 22,7 C 16,0 C 15,0 C 14,9 C 0,0 C 90 % 96 % 0 % 1014,7 hPa 0,0 l/m 0,0 km/h (0 Bft) SW 225 0 min 0,0 UV-I 13,5 C 14,9 C 0,0 km/h (0 Bft)
28.06.2012 03:35 14,9 C 22,7 C 16,0 C 14,9 C 14,9 C 0,0 C 90 % 96 % 0 % 1014,7 hPa 0,0 l/m 0,0 km/h (0 Bft) S-SW 202 0 min 0,0 UV-I 13,3 C 14,9 C 0,0 km/h (0 Bft)
28.06.2012 03:40 14,8 C 22,7 C 16,0 C 14,8 C 14,7 C 0,0 C 90 % 96 % 0 % 1014,7 hPa 0,0 l/m 0,0 km/h (0 Bft) S-SO 157 0 min 0,0 UV-I 13,2 C 14,7 C 0,0 km/h (0 Bft)
28.06.2012 03:45 14,8 C 22,7 C 16,0 C 14,7 C 14,6 C 0,0 C 90 % 96 % 0 % 1014,6 hPa 0,0 l/m 0,0 km/h (0 Bft) S-SO 157 0 min 0,0 UV-I 13,2 C 14,6 C 0,0 km/h (0 Bft)
28.06.2012 03:50 14,7 C 22,7 C 16,0 C 14,6 C 14,4 C 0,0 C 90 % 96 % 0 % 1014,6 hPa 0,0 l/m 0,0 km/h (0 Bft) W-SW 247 0 min 0,0 UV-I 13,1 C 14,4 C 0,0 km/h (0 Bft)
28.06.2012 03:55 14,7 C 22,7 C 15,9 C 14,6 C 14,4 C 0,0 C 90 % 96 % 0 % 1014,6 hPa 0,0 l/m 0,0 km/h (0 Bft) W-SW 247 0 min 0,0 UV-I 13,1 C 14,4 C 0,0 km/h (0 Bft)
28.06.2012 04:00 14,6 C 22,7 C 15,9 C 14,5 C 14,4 C 0,0 C 90 % 96 % 0 % 1014,6 hPa 0,0 l/m 0,0 km/h (0 Bft) S-SW 202 0 min 0,0 UV-I 13,0 C 14,4 C 0,0 km/h (0 Bft)
28.06.2012 04:11 14,4 C 22,7 C 15,8 C 14,3 C 14,2 C 0,0 C 90 % 96 % 0 % 1014,4 hPa 0,0 l/m 0,0 km/h (0 Bft) N 0 0 min 0,0 UV-I 12,8 C 14,2 C 0,0 km/h (0 Bft)
28.06.2012 04:20 14,3 C 22,6 C 15,8 C 14,2 C 14,1 C 0,0 C 90 % 96 % 0 % 1014,4 hPa 0,0 l/m 0,0 km/h (0 Bft) SW 225 0 min 0,0 UV-I 12,7 C 14,1 C 0,0 km/h (0 Bft)
28.06.2012 04:25 14,3 C 22,6 C 15,8 C 14,2 C 14,0 C 0,0 C 90 % 96 % 0 % 1014,5 hPa 0,0 l/m 0,0 km/h (0 Bft) W-SW 247 0 min 0,0 UV-I 12,7 C 14,0 C 0,0 km/h (0 Bft)
28.06.2012 04:30 14,3 C 22,6 C 15,9 C 14,2 C 14,1 C 0,0 C 90 % 96 % 0 % 1014,5 hPa 0,0 l/m 0,2 km/h (0 Bft) SW 225 0 min 0,0 UV-I 12,7 C 14,1 C 0,0 km/h (0 Bft)
28.06.2012 04:35 14,3 C 22,6 C 15,9 C 14,3 C 14,3 C 0,0 C 91 % 96 % 0 % 1014,5 hPa 0,0 l/m 0,2 km/h (0 Bft) W-SW 247 0 min 0,0 UV-I 12,8 C 14,3 C 0,0 km/h (0 Bft)
28.06.2012 04:40 14,2 C 22,6 C 15,8 C 14,5 C 14,5 C 0,3 C 91 % 96 % 0 % 1014,5 hPa 0,0 l/m 0,2 km/h (0 Bft) W-SW 247 0 min 0,0 UV-I 12,8 C 14,5 C 0,0 km/h (0 Bft)
28.06.2012 04:45 14,3 C 22,6 C 15,8 C 14,6 C 14,6 C 0,3 C 91 % 96 % 0 % 1014,7 hPa 0,0 l/m 0,0 km/h (0 Bft) SW 225 0 min 0,0 UV-I 12,8 C 14,6 C 0,0 km/h (0 Bft)
28.06.2012 04:50 14,3 C 22,6 C 15,9 C 14,8 C 14,8 C 0,5 C 91 % 96 % 0 % 1014,7 hPa 0,0 l/m 0,0 km/h (0 Bft) SW 225 0 min 0,0 UV-I 12,8 C 14,8 C 0,0 km/h (0 Bft)
28.06.2012 04:55 14,3 C 22,6 C 15,9 C 14,9 C 14,9 C 0,6 C 91 % 96 % 0 % 1014,7 hPa 0,0 l/m 0,0 km/h (0 Bft) S 180 0 min 0,0 UV-I 12,8 C 14,9 C 0,0 km/h (0 Bft)
28.06.2012 05:00 14,4 C 22,6 C 15,8 C 14,9 C 14,9 C 0,5 C 91 % 96 % 0 % 1014,7 hPa 0,0 l/m 0,0 km/h (0 Bft) S-SO 157 0 min 0,0 UV-I 12,9 C 14,9 C 0,0 km/h (0 Bft)
28.06.2012 05:11 14,5 C 22,6 C 15,8 C 15,0 C 15,0 C 0,5 C 91 % 96 % 13 % 1014,9 hPa 0,0 l/m 0,0 km/h (0 Bft) N 0 11 min 0,0 UV-I 13,0 C 15,0 C 0,0 km/h (0 Bft)
28.06.2012 05:20 14,5 C 22,6 C 15,8 C 15,0 C 15,0 C 0,5 C 91 % 96 % 13 % 1014,9 hPa 0,0 l/m 0,0 km/h (0 Bft) S-SO 157 9 min 0,0 UV-I 13,0 C 15,0 C 0,0 km/h (0 Bft)
28.06.2012 05:25 14,5 C 22,6 C 15,8 C 15,0 C 15,0 C 0,5 C 91 % 96 % 13 % 1014,8 hPa 0,0 l/m 0,0 km/h (0 Bft) S 180 5 min 0,0 UV-I 13,0 C 15,0 C 0,0 km/h (0 Bft)
28.06.2012 05:30 14,5 C 22,6 C 15,8 C 15,0 C 15,0 C 0,5 C 91 % 96 % 13 % 1014,8 hPa 0,0 l/m 0,0 km/h (0 Bft) O-NO 67 0 min 0,0 UV-I 13,0 C 15,0 C 1,6 km/h (1 Bft)
28.06.2012 05:35 14,7 C 22,6 C 15,8 C 15,1 C 15,1 C 0,4 C 91 % 96 % 11 % 1014,8 hPa 0,0 l/m 0,0 km/h (0 Bft) NO 45 0 min 0,0 UV-I 13,2 C 15,1 C 0,0 km/h (0 Bft)
28.06.2012 05:40 14,7 C 22,6 C 15,9 C 15,1 C 15,1 C 0,4 C 92 % 96 % 11 % 1014,8 hPa 0,0 l/m 0,0 km/h (0 Bft) NO 45 0 min 0,0 UV-I 13,4 C 15,1 C 0,0 km/h (0 Bft)
28.06.2012 05:45 14,7 C 22,6 C 15,8 C 15,2 C 15,2 C 0,5 C 92 % 96 % 13 % 1015,0 hPa 0,0 l/m 0,0 km/h (0 Bft) N-NO 22 0 min 0,0 UV-I 13,4 C 15,2 C 0,0 km/h (0 Bft)
28.06.2012 05:50 14,7 C 22,6 C 15,9 C 15,2 C 15,2 C 0,5 C 92 % 96 % 13 % 1015,0 hPa 0,0 l/m 0,0 km/h (0 Bft) SW 225 0 min 0,0 UV-I 13,4 C 15,2 C 0,0 km/h (0 Bft)
28.06.2012 05:55 14,7 C 22,6 C 15,9 C 15,3 C 15,3 C 0,6 C 92 % 96 % 16 % 1015,0 hPa 0,0 l/m 0,2 km/h (0 Bft) N-NO 22 0 min 0,0 UV-I 13,4 C 15,3 C 0,0 km/h (0 Bft)
28.06.2012 06:00 14,8 C 22,6 C 15,9 C 15,3 C 15,3 C 0,5 C 92 % 96 % 13 % 1015,0 hPa 0,0 l/m 0,2 km/h (0 Bft) SW 225 0 min 0,0 UV-I 13,5 C 15,3 C 1,6 km/h (1 Bft)
28.06.2012 06:12 14,8 C 22,5 C 15,9 C 15,5 C 15,5 C 0,7 C 92 % 96 % 18 % 1014,8 hPa 0,0 l/m 0,0 km/h (0 Bft) N 0 0 min 0,0 UV-I 13,5 C 15,5 C 0,0 km/h (0 Bft)
28.06.2012 06:20 14,9 C 22,5 C 15,9 C 15,5 C 15,5 C 0,6 C 92 % 96 % 16 % 1014,8 hPa 0,0 l/m 0,0 km/h (0 Bft) NO 45 0 min 0,0 UV-I 13,6 C 15,5 C 0,0 km/h (0 Bft)
28.06.2012 06:25 14,9 C 22,5 C 15,9 C 15,5 C 15,5 C 0,6 C 92 % 96 % 16 % 1015,0 hPa 0,0 l/m 0,0 km/h (0 Bft) W-SW 247 0 min 0,0 UV-I 13,6 C 15,5 C 0,0 km/h (0 Bft)
28.06.2012 06:30 14,9 C 22,5 C 15,9 C 15,5 C 15,5 C 0,6 C 92 % 96 % 16 % 1015,0 hPa 0,0 l/m 0,0 km/h (0 Bft) O-SO 112 0 min 0,0 UV-I 13,6 C 15,5 C 0,0 km/h (0 Bft)
28.06.2012 06:35 15,0 C 22,5 C 16,0 C 15,5 C 15,5 C 0,5 C 92 % 96 % 13 % 1015,0 hPa 0,0 l/m 0,0 km/h (0 Bft) NO 45 0 min 0,0 UV-I 13,7 C 15,5 C 0,0 km/h (0 Bft)
28.06.2012 06:40 15,1 C 22,5 C 16,0 C 15,6 C 15,6 C 0,5 C 92 % 96 % 13 % 1015,0 hPa 0,0 l/m 0,0 km/h (0 Bft) O-NO 67 0 min 0,0 UV-I 13,8 C 15,6 C 0,0 km/h (0 Bft)
28.06.2012 06:45 15,1 C 22,5 C 16,1 C 15,7 C 15,7 C 0,6 C 92 % 96 % 16 % 1014,8 hPa 0,0 l/m 0,0 km/h (0 Bft) O-NO 67 0 min 0,0 UV-I 13,8 C 15,7 C 0,0 km/h (0 Bft)
28.06.2012 06:50 15,0 C 22,5 C 16,0 C 15,7 C 15,7 C 0,7 C 92 % 96 % 18 % 1014,8 hPa 0,0 l/m 0,0 km/h (0 Bft) O-SO 112 0 min 0,0 UV-I 13,7 C 15,7 C 0,0 km/h (0 Bft)
28.06.2012 06:55 15,1 C 22,5 C 16,0 C 15,9 C 15,9 C 0,8 C 92 % 96 % 21 % 1014,8 hPa 0,0 l/m 0,0 km/h (0 Bft) SO 135 0 min 0,0 UV-I 13,8 C 15,9 C 0,0 km/h (0 Bft)
28.06.2012 07:00 15,2 C 22,5 C 16,0 C 15,9 C 15,9 C 0,7 C 92 % 96 % 18 % 1014,8 hPa 0,0 l/m 0,0 km/h (0 Bft) O-SO 112 0 min 0,0 UV-I 13,9 C 15,9 C 0,0 km/h (0 Bft)
28.06.2012 07:11 15,3 C 22,5 C 16,0 C 16,1 C 16,1 C 0,8 C 92 % 96 % 21 % 1014,7 hPa 0,0 l/m 0,0 km/h (0 Bft) N 0 0 min 0,0 UV-I 14,0 C 16,1 C 0,0 km/h (0 Bft)
28.06.2012 07:20 15,5 C 22,5 C 16,0 C 16,2 C 16,2 C 0,7 C 92 % 96 % 18 % 1014,7 hPa 0,0 l/m 0,0 km/h (0 Bft) NW 315 0 min 0,0 UV-I 14,2 C 16,2 C 0,0 km/h (0 Bft)
28.06.2012 07:25 15,5 C 22,5 C 16,1 C 16,3 C 16,3 C 0,8 C 92 % 96 % 21 % 1014,8 hPa 0,0 l/m 0,0 km/h (0 Bft) S 180 0 min 0,0 UV-I 14,2 C 16,3 C 0,0 km/h (0 Bft)
28.06.2012 07:30 15,5 C 22,5 C 16,1 C 16,3 C 16,3 C 0,8 C 92 % 96 % 21 % 1014,8 hPa 0,0 l/m 0,0 km/h (0 Bft) SW 225 0 min 0,0 UV-I 14,2 C 16,3 C 0,0 km/h (0 Bft)
28.06.2012 07:35 15,6 C 22,5 C 16,1 C 16,4 C 16,4 C 0,8 C 92 % 96 % 21 % 1014,8 hPa 0,0 l/m 0,0 km/h (0 Bft) S-SO 157 0 min 0,0 UV-I 14,3 C 16,4 C 0,0 km/h (0 Bft)
28.06.2012 07:40 15,7 C 22,5 C 16,1 C 16,4 C 16,4 C 0,7 C 92 % 96 % 18 % 1014,8 hPa 0,0 l/m 0,0 km/h (0 Bft) O 90 0 min 0,0 UV-I 14,4 C 16,4 C 0,0 km/h (0 Bft)
28.06.2012 07:45 15,7 C 22,5 C 16,1 C 16,7 C 16,7 C 1,0 C 92 % 96 % 26 % 1014,8 hPa 0,0 l/m 0,0 km/h (0 Bft) O-NO 67 0 min 0,0 UV-I 14,4 C 16,7 C 0,0 km/h (0 Bft)
28.06.2012 07:50 15,9 C 22,5 C 16,3 C 16,8 C 16,8 C 0,9 C 92 % 96 % 24 % 1014,8 hPa 0,0 l/m 0,0 km/h (0 Bft) SW 225 0 min 0,0 UV-I 14,6 C 16,8 C 0,0 km/h (0 Bft)
28.06.2012 07:55 15,9 C 22,5 C 16,3 C 17,1 C 17,1 C 1,2 C 92 % 96 % 32 % 1014,8 hPa 0,0 l/m 0,2 km/h (0 Bft) W-SW 247 0 min 0,0 UV-I 14,6 C 17,1 C 0,0 km/h (0 Bft)
28.06.2012 08:00 16,0 C 22,5 C 16,3 C 17,3 C 17,3 C 1,3 C 92 % 96 % 34 % 1014,8 hPa 0,0 l/m 0,2 km/h (0 Bft) O-NO 67 0 min 0,0 UV-I 14,7 C 17,3 C 0,0 km/h (0 Bft)
28.06.2012 08:12 16,2 C 22,5 C 16,3 C 17,9 C 17,9 C 1,7 C 92 % 96 % 45 % 1014,9 hPa 0,0 l/m 0,3 km/h (0 Bft) N 0 0 min 0,0 UV-I 14,9 C 17,9 C 2,6 km/h (1 Bft)
28.06.2012 08:20 16,3 C 22,5 C 16,3 C 17,8 C 17,8 C 1,5 C 92 % 96 % 39 % 1014,9 hPa 0,0 l/m 0,5 km/h (0 Bft) W 270 0 min 0,0 UV-I 15,0 C 17,8 C 2,1 km/h (1 Bft)
28.06.2012 08:25 16,3 C 22,5 C 16,3 C 17,7 C 17,7 C 1,4 C 92 % 96 % 37 % 1015,2 hPa 0,0 l/m 0,8 km/h (0 Bft) SW 225 0 min 0,0 UV-I 15,0 C 17,7 C 5,8 km/h (2 Bft)
28.06.2012 08:30 16,3 C 22,4 C 16,3 C 17,7 C 17,7 C 1,4 C 92 % 96 % 37 % 1015,2 hPa 0,0 l/m 1,4 km/h (1 Bft) SW 225 0 min 0,0 UV-I 15,0 C 17,7 C 3,5 km/h (1 Bft)
28.06.2012 08:35 16,3 C 22,4 C 16,3 C 17,9 C 17,9 C 1,6 C 92 % 96 % 42 % 1015,2 hPa 0,0 l/m 1,1 km/h (1 Bft) SW 225 0 min 0,0 UV-I 15,0 C 17,9 C 0,0 km/h (0 Bft)
28.06.2012 08:40 16,4 C 22,5 C 16,4 C 18,1 C 18,1 C 1,7 C 92 % 96 % 45 % 1015,2 hPa 0,0 l/m 0,3 km/h (0 Bft) S-SO 157 0 min 0,0 UV-I 15,1 C 18,1 C 0,0 km/h (0 Bft)
28.06.2012 08:45 16,5 C 22,4 C 16,4 C 18,8 C 18,8 C 2,3 C 92 % 96 % 61 % 1014,9 hPa 0,0 l/m 0,0 km/h (0 Bft) S-SW 202 0 min 0,0 UV-I 15,2 C 18,8 C 0,0 km/h (0 Bft)
28.06.2012 08:50 16,7 C 22,4 C 16,5 C 19,1 C 19,1 C 2,4 C 92 % 96 % 63 % 1014,9 hPa 0,0 l/m 0,0 km/h (0 Bft) W 270 0 min 0,0 UV-I 15,4 C 19,1 C 0,0 km/h (0 Bft)
28.06.2012 08:55 16,8 C 22,4 C 16,4 C 20,3 C 20,3 C 3,5 C 92 % 96 % 92 % 1014,9 hPa 0,0 l/m 0,0 km/h (0 Bft) SW 225 5 min 0,0 UV-I 15,5 C 20,3 C 0,0 km/h (0 Bft)
28.06.2012 09:00 17,0 C 22,3 C 16,5 C 21,5 C 21,5 C 4,5 C 93 % 96 % 100 % 1014,9 hPa 0,0 l/m 0,0 km/h (0 Bft) W 270 5 min 0,0 UV-I 15,9 C 21,5 C 0,0 km/h (0 Bft)
28.06.2012 09:11 17,5 C 22,3 C 16,7 C 22,2 C 22,2 C 4,7 C 92 % 96 % 100 % 1015,4 hPa 0,0 l/m 1,3 km/h (1 Bft) N 0 11 min 0,0 UV-I 16,2 C 22,2 C 6,6 km/h (2 Bft)
28.06.2012 09:20 18,1 C 22,2 C 16,8 C 23,4 C 23,4 C 5,3 C 92 % 96 % 100 % 1015,4 hPa 0,0 l/m 1,1 km/h (1 Bft) W-SW 247 9 min 0,0 UV-I 16,8 C 23,4 C 2,7 km/h (1 Bft)
28.06.2012 09:25 18,3 C 22,1 C 16,8 C 23,0 C 23,0 C 4,7 C 91 % 96 % 100 % 1014,9 hPa 0,0 l/m 1,1 km/h (1 Bft) SW 225 5 min 0,0 UV-I 16,8 C 23,0 C 6,0 km/h (2 Bft)
28.06.2012 09:30 18,4 C 22,2 C 16,8 C 22,5 C 22,5 C 4,1 C 90 % 96 % 100 % 1014,9 hPa 0,0 l/m 1,9 km/h (1 Bft) SW 225 5 min 0,0 UV-I 16,7 C 22,5 C 3,2 km/h (1 Bft)
28.06.2012 09:35 18,4 C 22,1 C 16,9 C 22,7 C 22,7 C 4,3 C 89 % 96 % 100 % 1014,9 hPa 0,0 l/m 3,4 km/h (1 Bft) W-SW 247 5 min 0,0 UV-I 16,6 C 22,7 C 7,6 km/h (2 Bft)
28.06.2012 09:40 18,4 C 22,1 C 17,1 C 22,8 C 22,8 C 4,4 C 88 % 96 % 100 % 1014,9 hPa 0,0 l/m 3,7 km/h (1 Bft) W-SW 247 5 min 0,0 UV-I 16,4 C 22,8 C 4,0 km/h (1 Bft)
28.06.2012 09:45 18,4 C 22,1 C 17,1 C 22,4 C 22,4 C 4,0 C 86 % 96 % 100 % 1015,0 hPa 0,0 l/m 4,2 km/h (1 Bft) S-SO 157 5 min 0,0 UV-I 16,0 C 22,4 C 5,1 km/h (1 Bft)
28.06.2012 09:50 18,5 C 22,1 C 17,1 C 21,8 C 21,8 C 3,3 C 86 % 96 % 87 % 1015,0 hPa 0,0 l/m 4,3 km/h (1 Bft) SW 225 5 min 0,0 UV-I 16,1 C 21,8 C 5,0 km/h (1 Bft)
28.06.2012 09:55 18,5 C 22,1 C 17,1 C 21,8 C 21,8 C 3,3 C 86 % 96 % 87 % 1015,0 hPa 0,0 l/m 3,5 km/h (1 Bft) N-NO 22 5 min 0,0 UV-I 16,1 C 21,8 C 5,5 km/h (1 Bft)
28.06.2012 10:00 18,4 C 22,1 C 17,1 C 22,0 C 22,0 C 3,6 C 86 % 96 % 95 % 1015,0 hPa 0,0 l/m 3,4 km/h (1 Bft) W-SW 247 5 min 0,0 UV-I 16,0 C 22,0 C 5,5 km/h (1 Bft)
28.06.2012 10:05 18,7 C 22,1 C 17,1 C 22,6 C 22,6 C 3,9 C 86 % 96 % 100 % 1014,6 hPa 0,0 l/m 2,7 km/h (1 Bft) O-SO 112 5 min 0,0 UV-I 16,3 C 22,6 C 4,0 km/h (1 Bft)
28.06.2012 10:10 18,7 C 22,1 C 17,2 C 23,0 C 23,0 C 4,3 C 85 % 96 % 100 % 1014,6 hPa 0,0 l/m 2,6 km/h (1 Bft) W-SW 247 5 min 0,0 UV-I 16,1 C 23,0 C 7,6 km/h (2 Bft)
28.06.2012 10:15 18,8 C 22,1 C 17,2 C 23,3 C 23,3 C 4,5 C 84 % 96 % 100 % 1014,6 hPa 0,0 l/m 3,4 km/h (1 Bft) S-SW 202 5 min 0,0 UV-I 16,0 C 23,3 C 7,9 km/h (2 Bft)
28.06.2012 10:20 18,9 C 22,1 C 17,3 C 24,0 C 24,0 C 5,1 C 84 % 95 % 100 % 1014,6 hPa 0,0 l/m 3,7 km/h (1 Bft) W-SW 247 5 min 0,0 UV-I 16,1 C 24,0 C 3,4 km/h (1 Bft)
28.06.2012 10:25 19,1 C 22,0 C 17,3 C 24,6 C 24,6 C 5,5 C 83 % 95 % 100 % 1014,9 hPa 0,0 l/m 4,0 km/h (1 Bft) W-SW 247 5 min 0,0 UV-I 16,1 C 24,6 C 9,2 km/h (2 Bft)
28.06.2012 10:30 19,2 C 22,0 C 17,5 C 25,1 C 25,1 C 5,9 C 83 % 95 % 100 % 1014,9 hPa 0,0 l/m 3,5 km/h (1 Bft) S-SW 202 5 min 0,0 UV-I 16,2 C 25,1 C 5,1 km/h (1 Bft)
28.06.2012 10:35 19,4 C 22,1 C 17,5 C 25,3 C 25,3 C 5,9 C 82 % 95 % 100 % 1014,9 hPa 0,0 l/m 3,4 km/h (1 Bft) S-SW 202 5 min 0,0 UV-I 16,2 C 25,3 C 4,2 km/h (1 Bft)
28.06.2012 10:40 19,4 C 22,1 C 17,5 C 24,9 C 24,9 C 5,5 C 81 % 95 % 100 % 1014,9 hPa 0,0 l/m 3,4 km/h (1 Bft) W-SW 247 5 min 0,0 UV-I 16,1 C 24,9 C 3,7 km/h (1 Bft)
28.06.2012 10:45 19,6 C 22,0 C 17,5 C 25,6 C 25,6 C 6,0 C 80 % 95 % 100 % 1014,6 hPa 0,0 l/m 3,9 km/h (1 Bft) SW 225 5 min 0,0 UV-I 16,1 C 25,6 C 5,1 km/h (1 Bft)
28.06.2012 10:50 19,6 C 22,0 C 17,5 C 25,3 C 25,3 C 5,7 C 80 % 95 % 100 % 1014,6 hPa 0,0 l/m 3,9 km/h (1 Bft) W-SW 247 5 min 0,0 UV-I 16,1 C 25,3 C 6,8 km/h (2 Bft)
28.06.2012 10:55 19,8 C 22,1 C 17,5 C 24,9 C 24,9 C 5,1 C 80 % 95 % 100 % 1014,6 hPa 0,0 l/m 2,7 km/h (1 Bft) SW 225 5 min 0,0 UV-I 16,2 C 24,9 C 0,0 km/h (0 Bft)
28.06.2012 11:00 20,1 C 22,0 C 17,5 C 25,1 C 25,1 C 5,0 C 79 % 95 % 100 % 1014,6 hPa 0,0 l/m 1,6 km/h (1 Bft) NW 315 5 min 0,0 UV-I 16,3 C 25,1 C 0,0 km/h (0 Bft)
28.06.2012 11:11 20,5 C 22,0 C 17,5 C 24,0 C 24,0 C 3,5 C 78 % 95 % 92 % 1015,2 hPa 0,0 l/m 1,0 km/h (0 Bft) N 0 11 min 0,0 UV-I 16,5 C 24,0 C 0,0 km/h (0 Bft)
28.06.2012 11:20 20,8 C 22,0 C 17,5 C 24,0 C 24,0 C 3,2 C 78 % 95 % 84 % 1015,2 hPa 0,0 l/m 0,6 km/h (0 Bft) SW 225 0 min 0,0 UV-I 16,8 C 24,0 C 0,0 km/h (0 Bft)
28.06.2012 11:25 21,1 C 22,0 C 17,6 C 25,1 C 25,1 C 4,0 C 77 % 95 % 100 % 1014,6 hPa 0,0 l/m 1,0 km/h (0 Bft) W-SW 247 5 min 0,0 UV-I 16,9 C 25,1 C 4,5 km/h (1 Bft)
28.06.2012 11:30 21,1 C 22,0 C 17,6 C 24,7 C 24,7 C 3,6 C 76 % 95 % 95 % 1014,6 hPa 0,0 l/m 1,9 km/h (1 Bft) W-SW 247 5 min 0,0 UV-I 16,7 C 24,7 C 2,1 km/h (1 Bft)
28.06.2012 11:35 21,1 C 22,0 C 17,6 C 24,4 C 24,4 C 3,3 C 75 % 95 % 87 % 1014,6 hPa 0,0 l/m 1,8 km/h (1 Bft) W-SW 247 5 min 0,0 UV-I 16,5 C 24,4 C 2,4 km/h (1 Bft)
28.06.2012 11:40 21,2 C 22,0 C 17,6 C 24,9 C 24,9 C 3,7 C 76 % 95 % 97 % 1014,6 hPa 0,0 l/m 1,1 km/h (1 Bft) SW 225 5 min 0,0 UV-I 16,8 C 24,9 C 3,4 km/h (1 Bft)
28.06.2012 11:45 21,4 C 22,0 C 17,7 C 26,0 C 26,0 C 4,6 C 75 % 95 % 100 % 1014,4 hPa 0,0 l/m 1,1 km/h (1 Bft) S-SO 157 5 min 0,0 UV-I 16,8 C 26,0 C 0,0 km/h (0 Bft)
28.06.2012 11:50 21,7 C 22,0 C 17,7 C 26,0 C 26,0 C 4,3 C 75 % 95 % 100 % 1014,4 hPa 0,0 l/m 1,1 km/h (1 Bft) SW 225 5 min 0,0 UV-I 17,1 C 26,0 C 4,0 km/h (1 Bft)
28.06.2012 11:55 22,1 C 22,0 C 17,9 C 27,2 C 27,2 C 5,1 C 75 % 95 % 100 % 1014,4 hPa 0,0 l/m 1,0 km/h (0 Bft) SW 225 5 min 0,0 UV-I 17,5 C 27,2 C 2,3 km/h (1 Bft)
28.06.2012 12:00 22,3 C 22,0 C 17,9 C 27,9 C 27,9 C 5,6 C 73 % 94 % 100 % 1014,4 hPa 0,0 l/m 1,4 km/h (1 Bft) S 180 5 min 0,0 UV-I 17,2 C 27,9 C 0,0 km/h (0 Bft)
28.06.2012 12:11 22,7 C 22,1 C 18,1 C 27,1 C 27,1 C 4,4 C 73 % 94 % 100 % 1013,8 hPa 0,0 l/m 1,9 km/h (1 Bft) N 0 11 min 0,0 UV-I 17,6 C 27,1 C 9,3 km/h (2 Bft)
28.06.2012 12:20 23,1 C 22,1 C 18,1 C 27,3 C 27,3 C 4,2 C 71 % 94 % 100 % 1013,8 hPa 0,0 l/m 2,9 km/h (1 Bft) SW 225 9 min 0,0 UV-I 17,5 C 27,3 C 2,1 km/h (1 Bft)
28.06.2012 12:25 23,1 C 22,1 C 18,2 C 27,2 C 27,2 C 4,1 C 71 % 94 % 100 % 1013,9 hPa 0,0 l/m 2,6 km/h (1 Bft) SO 135 5 min 0,0 UV-I 17,5 C 27,2 C 2,3 km/h (1 Bft)
28.06.2012 12:30 23,2 C 22,1 C 18,1 C 27,4 C 27,4 C 4,2 C 71 % 94 % 100 % 1013,9 hPa 0,0 l/m 1,6 km/h (1 Bft) SO 135 5 min 0,0 UV-I 17,6 C 27,4 C 1,9 km/h (1 Bft)
28.06.2012 12:35 23,4 C 22,1 C 18,1 C 27,6 C 27,6 C 4,2 C 69 % 94 % 100 % 1013,9 hPa 0,0 l/m 1,9 km/h (1 Bft) S 180 5 min 0,0 UV-I 17,4 C 27,6 C 5,6 km/h (1 Bft)
28.06.2012 12:40 23,6 C 22,1 C 18,3 C 28,0 C 28,0 C 4,4 C 70 % 94 % 100 % 1013,9 hPa 0,0 l/m 2,4 km/h (1 Bft) W-SW 247 5 min 0,0 UV-I 17,8 C 28,0 C 4,8 km/h (1 Bft)
28.06.2012 12:45 24,1 C 22,1 C 18,3 C 28,1 C 28,1 C 4,0 C 66 % 93 % 100 % 1013,9 hPa 0,0 l/m 2,7 km/h (1 Bft) W-SW 247 5 min 0,0 UV-I 17,3 C 28,1 C 3,9 km/h (1 Bft)
28.06.2012 12:50 23,9 C 22,1 C 18,3 C 27,6 C 27,6 C 3,7 C 66 % 93 % 97 % 1013,9 hPa 0,0 l/m 2,4 km/h (1 Bft) W-SW 247 5 min 0,0 UV-I 17,1 C 27,6 C 0,0 km/h (0 Bft)
28.06.2012 12:55 23,6 C 22,1 C 18,3 C 27,0 C 27,0 C 3,4 C 66 % 93 % 89 % 1013,9 hPa 0,0 l/m 2,9 km/h (1 Bft) N-NW 337 5 min 0,0 UV-I 16,9 C 27,0 C 3,2 km/h (1 Bft)
28.06.2012 13:00 23,7 C 22,1 C 18,5 C 27,0 C 27,0 C 3,3 C 67 % 93 % 87 % 1013,9 hPa 0,0 l/m 3,4 km/h (1 Bft) SW 225 5 min 0,0 UV-I 17,2 C 27,0 C 3,4 km/h (1 Bft)
28.06.2012 13:06 24,1 C 22,1 C 18,5 C 28,0 C 28,0 C 3,9 C 68 % 93 % 100 % 1013,6 hPa 0,0 l/m 2,9 km/h (1 Bft) N 0 6 min 0,0 UV-I 17,8 C 28,0 C 4,8 km/h (1 Bft)
28.06.2012 13:20 24,7 C 22,1 C 18,6 C 28,7 C 28,7 C 4,0 C 65 % 93 % 100 % 1013,6 hPa 0,0 l/m 3,2 km/h (1 Bft) SW 225 14 min 0,0 UV-I 17,7 C 28,7 C 9,8 km/h (2 Bft)
28.06.2012 13:25 24,8 C 22,1 C 18,6 C 28,7 C 28,7 C 3,9 C 63 % 93 % 100 % 1013,6 hPa 0,0 l/m 1,9 km/h (1 Bft) W-SW 247 5 min 0,0 UV-I 17,3 C 28,7 C 4,7 km/h (1 Bft)
28.06.2012 13:30 24,8 C 22,1 C 18,7 C 28,2 C 28,2 C 3,4 C 64 % 93 % 89 % 1013,6 hPa 0,0 l/m 1,4 km/h (1 Bft) SO 135 5 min 0,0 UV-I 17,5 C 28,2 C 0,0 km/h (0 Bft)
28.06.2012 13:35 24,8 C 22,1 C 18,7 C 27,8 C 27,8 C 3,0 C 63 % 93 % 79 % 1013,6 hPa 0,0 l/m 1,9 km/h (1 Bft) W-SW 247 0 min 0,0 UV-I 17,3 C 27,8 C 3,5 km/h (1 Bft)
28.06.2012 13:40 24,8 C 22,1 C 18,6 C 27,8 C 27,8 C 3,0 C 63 % 93 % 79 % 1013,6 hPa 0,0 l/m 1,6 km/h (1 Bft) W-SW 247 0 min 0,0 UV-I 17,3 C 27,8 C 8,5 km/h (2 Bft)
28.06.2012 13:45 25,0 C 22,1 C 18,7 C 29,4 C 29,4 C 4,4 C 63 % 93 % 100 % 1013,4 hPa 0,0 l/m 2,6 km/h (1 Bft) W 270 5 min 0,1 UV-I 17,5 C 29,4 C 6,4 km/h (2 Bft)
28.06.2012 13:50 25,1 C 22,1 C 18,8 C 28,8 C 28,8 C 3,7 C 62 % 93 % 97 % 1013,4 hPa 0,0 l/m 3,4 km/h (1 Bft) S 180 5 min 0,0 UV-I 17,3 C 28,8 C 5,5 km/h (1 Bft)
28.06.2012 13:55 24,9 C 22,1 C 18,9 C 27,4 C 27,4 C 2,5 C 62 % 93 % 66 % 1013,4 hPa 0,0 l/m 4,2 km/h (1 Bft) W-SW 247 0 min 0,0 UV-I 17,1 C 27,4 C 4,0 km/h (1 Bft)
28.06.2012 14:00 24,8 C 22,1 C 18,9 C 27,9 C 27,9 C 3,1 C 62 % 93 % 82 % 1013,4 hPa 0,0 l/m 3,4 km/h (1 Bft) N-NO 22 0 min 0,0 UV-I 17,0 C 27,9 C 1,6 km/h (1 Bft)
28.06.2012 14:11 24,8 C 22,1 C 18,8 C 27,4 C 27,4 C 2,6 C 62 % 93 % 68 % 1013,2 hPa 0,0 l/m 1,3 km/h (1 Bft) N 0 0 min 0,0 UV-I 17,0 C 27,4 C 6,9 km/h (2 Bft)
28.06.2012 14:20 25,2 C 22,1 C 18,9 C 29,0 C 29,0 C 3,8 C 61 % 93 % 100 % 1013,2 hPa 0,0 l/m 2,6 km/h (1 Bft) W 270 9 min 0,0 UV-I 17,1 C 29,0 C 3,4 km/h (1 Bft)
28.06.2012 14:25 25,4 C 22,1 C 18,9 C 28,7 C 28,7 C 3,3 C 61 % 93 % 87 % 1013,4 hPa 0,0 l/m 2,7 km/h (1 Bft) O 90 5 min 0,0 UV-I 17,3 C 28,7 C 0,0 km/h (0 Bft)
28.06.2012 14:30 25,3 C 22,1 C 19,0 C 28,0 C 28,0 C 2,7 C 61 % 93 % 71 % 1013,4 hPa 0,0 l/m 3,1 km/h (1 Bft) W-SW 247 0 min 0,0 UV-I 17,2 C 28,0 C 3,1 km/h (1 Bft)
28.06.2012 14:35 25,0 C 22,1 C 18,9 C 27,3 C 27,3 C 2,3 C 63 % 93 % 61 % 1013,4 hPa 0,0 l/m 1,1 km/h (1 Bft) W 270 0 min 0,0 UV-I 17,5 C 27,3 C 0,0 km/h (0 Bft)
28.06.2012 14:40 25,1 C 22,1 C 18,9 C 27,4 C 27,4 C 2,3 C 62 % 93 % 61 % 1013,4 hPa 0,0 l/m 1,3 km/h (1 Bft) S 180 0 min 0,0 UV-I 17,3 C 27,4 C 3,5 km/h (1 Bft)
28.06.2012 14:45 25,3 C 22,1 C 19,1 C 27,9 C 27,9 C 2,6 C 61 % 93 % 68 % 1013,4 hPa 0,0 l/m 1,6 km/h (1 Bft) SO 135 0 min 0,0 UV-I 17,2 C 27,9 C 0,0 km/h (0 Bft)
28.06.2012 14:50 25,2 C 22,1 C 19,1 C 27,8 C 27,8 C 2,6 C 59 % 93 % 68 % 1013,4 hPa 0,0 l/m 1,1 km/h (1 Bft) O-NO 67 0 min 0,0 UV-I 16,6 C 27,8 C 1,8 km/h (1 Bft)
28.06.2012 14:55 25,0 C 22,1 C 19,1 C 29,0 C 29,0 C 4,0 C 62 % 93 % 100 % 1013,4 hPa 0,0 l/m 1,0 km/h (0 Bft) S 180 5 min 0,0 UV-I 17,2 C 29,0 C 2,4 km/h (1 Bft)
28.06.2012 15:00 25,5 C 22,1 C 19,1 C 30,4 C 30,4 C 4,9 C 62 % 93 % 100 % 1013,4 hPa 0,0 l/m 1,0 km/h (0 Bft) O-NO 67 5 min 0,0 UV-I 17,7 C 30,4 C 0,0 km/h (0 Bft)
28.06.2012 15:12 26,3 C 22,1 C 19,1 C 28,7 C 28,7 C 2,4 C 59 % 92 % 63 % 1013,3 hPa 0,0 l/m 1,3 km/h (1 Bft) N 0 0 min 0,0 UV-I 17,6 C 28,7 C 0,0 km/h (0 Bft)
28.06.2012 15:20 26,1 C 22,1 C 19,0 C 28,4 C 28,4 C 2,3 C 59 % 92 % 61 % 1013,3 hPa 0,0 l/m 0,2 km/h (0 Bft) N-NO 22 0 min 0,0 UV-I 17,4 C 28,4 C 0,0 km/h (0 Bft)
28.06.2012 15:25 26,0 C 22,1 C 19,1 C 28,7 C 28,7 C 2,7 C 59 % 92 % 71 % 1013,3 hPa 0,0 l/m 0,6 km/h (0 Bft) W-SW 247 0 min 0,0 UV-I 17,4 C 28,7 C 0,0 km/h (0 Bft)
28.06.2012 15:30 25,9 C 22,1 C 19,1 C 28,8 C 28,8 C 2,9 C 58 % 92 % 76 % 1013,3 hPa 0,0 l/m 0,8 km/h (0 Bft) S-SW 202 0 min 0,0 UV-I 17,0 C 28,8 C 2,3 km/h (1 Bft)
28.06.2012 15:35 25,7 C 22,1 C 19,1 C 29,0 C 29,0 C 3,3 C 58 % 93 % 87 % 1013,3 hPa 0,0 l/m 1,0 km/h (0 Bft) O-SO 112 5 min 0,0 UV-I 16,8 C 29,0 C 0,0 km/h (0 Bft)
28.06.2012 15:40 25,7 C 22,1 C 19,1 C 28,7 C 28,7 C 3,0 C 60 % 93 % 79 % 1013,3 hPa 0,0 l/m 1,1 km/h (1 Bft) W-SW 247 0 min 0,0 UV-I 17,3 C 28,7 C 3,9 km/h (1 Bft)
28.06.2012 15:45 25,7 C 22,1 C 19,0 C 28,3 C 28,3 C 2,6 C 59 % 93 % 68 % 1013,1 hPa 0,0 l/m 1,0 km/h (0 Bft) W 270 0 min 0,0 UV-I 17,1 C 28,3 C 0,0 km/h (0 Bft)
28.06.2012 15:50 25,9 C 22,1 C 19,1 C 28,9 C 28,9 C 3,0 C 61 % 92 % 79 % 1013,1 hPa 0,0 l/m 1,0 km/h (0 Bft) SW 225 0 min 0,0 UV-I 17,8 C 28,9 C 0,0 km/h (0 Bft)
28.06.2012 15:55 26,7 C 22,1 C 19,2 C 30,5 C 30,5 C 3,8 C 57 % 93 % 100 % 1013,1 hPa 0,0 l/m 1,8 km/h (1 Bft) W-SW 247 5 min 0,0 UV-I 17,5 C 30,5 C 3,1 km/h (1 Bft)
28.06.2012 16:00 27,1 C 22,1 C 19,3 C 30,8 C 30,8 C 3,7 C 58 % 92 % 97 % 1013,1 hPa 0,0 l/m 3,1 km/h (1 Bft) SW 225 5 min 0,0 UV-I 18,1 C 30,8 C 5,1 km/h (1 Bft)
28.06.2012 16:11 27,1 C 22,1 C 19,2 C 30,8 C 30,8 C 3,7 C 56 % 92 % 97 % 1013,1 hPa 0,0 l/m 0,8 km/h (0 Bft) N 0 11 min 0,0 UV-I 17,5 C 30,8 C 4,0 km/h (1 Bft)
28.06.2012 16:20 26,8 C 22,1 C 19,3 C 29,3 C 29,3 C 2,5 C 57 % 92 % 66 % 1013,1 hPa 0,0 l/m 0,8 km/h (0 Bft) SW 225 0 min 0,0 UV-I 17,6 C 29,3 C 3,4 km/h (1 Bft)
28.06.2012 16:25 26,7 C 22,1 C 19,2 C 28,7 C 28,7 C 2,0 C 57 % 92 % 53 % 1012,9 hPa 0,0 l/m 1,3 km/h (1 Bft) W 270 0 min 0,0 UV-I 17,5 C 28,7 C 1,6 km/h (1 Bft)
28.06.2012 16:30 26,5 C 22,1 C 19,2 C 28,4 C 28,4 C 1,9 C 55 % 92 % 50 % 1012,9 hPa 0,0 l/m 1,3 km/h (1 Bft) O 90 0 min 0,0 UV-I 16,7 C 28,4 C 0,0 km/h (0 Bft)
28.06.2012 16:35 26,3 C 22,1 C 19,3 C 29,1 C 29,1 C 2,8 C 57 % 92 % 74 % 1012,9 hPa 0,0 l/m 0,3 km/h (0 Bft) W-SW 247 0 min 0,0 UV-I 17,1 C 29,1 C 0,0 km/h (0 Bft)
28.06.2012 16:40 26,3 C 22,1 C 19,3 C 29,2 C 29,2 C 2,9 C 58 % 92 % 76 % 1012,9 hPa 0,0 l/m 0,3 km/h (0 Bft) O-NO 67 0 min 0,0 UV-I 17,4 C 29,2 C 1,8 km/h (1 Bft)
28.06.2012 16:45 26,1 C 22,1 C 19,1 C 28,6 C 28,6 C 2,5 C 57 % 92 % 66 % 1012,8 hPa 0,0 l/m 0,3 km/h (0 Bft) NO 45 0 min 0,0 UV-I 16,9 C 28,6 C 0,0 km/h (0 Bft)
28.06.2012 16:50 25,8 C 22,1 C 19,3 C 28,5 C 28,5 C 2,7 C 58 % 92 % 71 % 1012,8 hPa 0,0 l/m 0,2 km/h (0 Bft) S-SO 157 0 min 0,0 UV-I 16,9 C 28,5 C 0,0 km/h (0 Bft)
28.06.2012 16:55 26,1 C 22,1 C 19,3 C 30,3 C 30,3 C 4,2 C 59 % 92 % 100 % 1012,8 hPa 0,0 l/m 0,6 km/h (0 Bft) N-NW 337 5 min 0,0 UV-I 17,4 C 30,3 C 2,9 km/h (1 Bft)
28.06.2012 17:00 26,4 C 22,1 C 19,5 C 31,1 C 31,1 C 4,7 C 56 % 92 % 100 % 1012,8 hPa 0,0 l/m 0,8 km/h (0 Bft) S-SO 157 5 min 0,0 UV-I 16,9 C 31,1 C 0,0 km/h (0 Bft)
28.06.2012 17:11 26,8 C 22,1 C 19,5 C 31,4 C 31,4 C 4,6 C 56 % 92 % 100 % 1012,4 hPa 0,0 l/m 1,0 km/h (0 Bft) N 0 11 min 0,0 UV-I 17,3 C 31,4 C 0,0 km/h (0 Bft)
28.06.2012 17:20 27,3 C 22,1 C 19,7 C 32,4 C 32,4 C 5,1 C 53 % 92 % 100 % 1012,4 hPa 0,0 l/m 1,9 km/h (1 Bft) SW 225 9 min 0,0 UV-I 16,9 C 32,4 C 6,3 km/h (2 Bft)
28.06.2012 17:25 27,5 C 22,1 C 19,8 C 32,1 C 32,1 C 4,6 C 54 % 92 % 100 % 1012,5 hPa 0,0 l/m 2,7 km/h (1 Bft) W-SW 247 5 min 0,0 UV-I 17,3 C 32,1 C 2,3 km/h (1 Bft)
28.06.2012 17:30 27,5 C 22,1 C 19,8 C 31,7 C 31,7 C 4,2 C 52 % 92 % 100 % 1012,5 hPa 0,0 l/m 2,7 km/h (1 Bft) W-SW 247 5 min 0,0 UV-I 16,7 C 31,7 C 3,1 km/h (1 Bft)
28.06.2012 17:35 27,7 C 22,1 C 19,9 C 31,1 C 31,1 C 3,4 C 53 % 92 % 89 % 1012,5 hPa 0,0 l/m 1,6 km/h (1 Bft) O-SO 112 5 min 0,0 UV-I 17,2 C 31,1 C 0,0 km/h (0 Bft)
28.06.2012 17:40 27,5 C 22,1 C 19,9 C 31,4 C 31,4 C 3,9 C 53 % 92 % 100 % 1012,5 hPa 0,0 l/m 0,8 km/h (0 Bft) N-NO 22 5 min 0,0 UV-I 17,0 C 31,4 C 0,0 km/h (0 Bft)
28.06.2012 17:45 27,5 C 22,1 C 19,8 C 31,7 C 31,7 C 4,2 C 54 % 92 % 100 % 1012,6 hPa 0,0 l/m 0,6 km/h (0 Bft) N-NO 22 5 min 0,0 UV-I 17,3 C 31,7 C 1,6 km/h (1 Bft)
28.06.2012 17:50 27,3 C 22,1 C 19,8 C 31,9 C 31,9 C 4,6 C 54 % 92 % 100 % 1012,6 hPa 0,0 l/m 1,1 km/h (1 Bft) O-NO 67 5 min 0,0 UV-I 17,2 C 31,9 C 2,1 km/h (1 Bft)
28.06.2012 17:55 27,2 C 22,1 C 19,9 C 31,6 C 31,6 C 4,4 C 51 % 92 % 100 % 1012,6 hPa 0,0 l/m 1,3 km/h (1 Bft) O-NO 67 5 min 0,0 UV-I 16,2 C 31,6 C 0,0 km/h (0 Bft)
28.06.2012 18:00 27,1 C 22,1 C 19,9 C 31,3 C 31,3 C 4,2 C 52 % 92 % 100 % 1012,6 hPa 0,0 l/m 1,0 km/h (0 Bft) O-NO 67 5 min 0,0 UV-I 16,4 C 31,3 C 1,9 km/h (1 Bft)
28.06.2012 18:11 26,5 C 22,1 C 19,8 C 31,1 C 31,1 C 4,6 C 54 % 92 % 100 % 1012,2 hPa 0,0 l/m 0,5 km/h (0 Bft) N 0 11 min 0,0 UV-I 16,4 C 31,1 C 0,0 km/h (0 Bft)
28.06.2012 18:20 26,1 C 22,1 C 19,7 C 31,1 C 31,1 C 5,0 C 55 % 92 % 100 % 1012,2 hPa 0,0 l/m 0,6 km/h (0 Bft) O-NO 67 9 min 0,0 UV-I 16,3 C 31,1 C 0,0 km/h (0 Bft)
28.06.2012 18:25 26,0 C 22,1 C 19,9 C 31,1 C 31,1 C 5,1 C 56 % 92 % 100 % 1012,1 hPa 0,0 l/m 0,8 km/h (0 Bft) O-NO 67 5 min 0,0 UV-I 16,5 C 31,1 C 4,5 km/h (1 Bft)
28.06.2012 18:30 25,9 C 22,1 C 19,8 C 30,7 C 30,7 C 4,8 C 55 % 92 % 100 % 1012,1 hPa 0,0 l/m 0,8 km/h (0 Bft) NO 45 5 min 0,0 UV-I 16,2 C 30,7 C 0,0 km/h (0 Bft)
28.06.2012 18:35 25,8 C 22,1 C 19,8 C 30,7 C 30,7 C 4,9 C 55 % 92 % 100 % 1012,1 hPa 0,0 l/m 0,8 km/h (0 Bft) O-NO 67 5 min 0,0 UV-I 16,1 C 30,7 C 1,9 km/h (1 Bft)
28.06.2012 18:40 25,9 C 22,1 C 19,8 C 30,5 C 30,5 C 4,6 C 56 % 92 % 100 % 1012,1 hPa 0,0 l/m 0,6 km/h (0 Bft) O-NO 67 5 min 0,0 UV-I 16,4 C 30,5 C 2,1 km/h (1 Bft)
28.06.2012 18:45 25,7 C 22,1 C 19,9 C 29,9 C 29,9 C 4,2 C 57 % 92 % 100 % 1011,8 hPa 0,0 l/m 0,5 km/h (0 Bft) O-NO 67 5 min 0,0 UV-I 16,5 C 29,9 C 0,0 km/h (0 Bft)
28.06.2012 18:50 25,6 C 23,2 C 19,9 C 29,7 C 29,7 C 4,1 C 57 % 92 % 100 % 1011,8 hPa 0,0 l/m 1,3 km/h (1 Bft) NO 45 5 min 0,0 UV-I 16,4 C 29,7 C 5,6 km/h (1 Bft)
28.06.2012 18:55 25,4 C 23,2 C 19,8 C 29,1 C 29,1 C 3,7 C 58 % 92 % 97 % 1011,8 hPa 0,0 l/m 2,3 km/h (1 Bft) O-NO 67 5 min 0,0 UV-I 16,5 C 29,1 C 2,3 km/h (1 Bft)
28.06.2012 19:00 25,3 C 23,2 C 19,9 C 28,9 C 28,9 C 3,6 C 58 % 92 % 95 % 1011,8 hPa 0,0 l/m 2,7 km/h (1 Bft) O-NO 67 5 min 0,0 UV-I 16,4 C 28,9 C 3,7 km/h (1 Bft)
28.06.2012 19:06 25,2 C 23,2 C 20,1 C 28,3 C 28,3 C 3,1 C 59 % 92 % 82 % 1011,7 hPa 0,0 l/m 3,5 km/h (1 Bft) N 0 0 min 0,0 UV-I 16,6 C 28,3 C 3,5 km/h (1 Bft)
28.06.2012 19:20 25,0 C 23,2 C 20,2 C 28,1 C 28,1 C 3,1 C 60 % 91 % 82 % 1011,7 hPa 0,0 l/m 3,2 km/h (1 Bft) O-NO 67 14 min 0,0 UV-I 16,7 C 28,1 C 3,5 km/h (1 Bft)
28.06.2012 19:25 24,9 C 23,2 C 20,3 C 27,9 C 27,9 C 3,0 C 60 % 91 % 79 % 1011,8 hPa 0,0 l/m 3,2 km/h (1 Bft) O 90 5 min 0,0 UV-I 16,6 C 27,9 C 4,2 km/h (1 Bft)
28.06.2012 19:30 24,8 C 23,2 C 20,5 C 27,4 C 27,4 C 2,6 C 60 % 91 % 68 % 1011,8 hPa 0,0 l/m 4,2 km/h (1 Bft) O 90 5 min 0,0 UV-I 16,5 C 27,4 C 6,4 km/h (2 Bft)
28.06.2012 19:35 24,9 C 23,2 C 20,8 C 26,9 C 26,9 C 2,0 C 61 % 90 % 53 % 1011,8 hPa 0,0 l/m 4,5 km/h (1 Bft) O-NO 67 0 min 0,0 UV-I 16,8 C 26,9 C 4,2 km/h (1 Bft)
28.06.2012 19:40 24,7 C 23,2 C 21,5 C 26,7 C 26,7 C 2,0 C 61 % 90 % 53 % 1011,8 hPa 0,0 l/m 4,0 km/h (1 Bft) O 90 0 min 0,0 UV-I 16,7 C 26,7 C 3,5 km/h (1 Bft)
28.06.2012 19:45 24,7 C 23,2 C 21,9 C 26,5 C 26,5 C 1,8 C 61 % 89 % 47 % 1011,6 hPa 0,0 l/m 3,1 km/h (1 Bft) O-NO 67 0 min 0,0 UV-I 16,7 C 26,5 C 4,3 km/h (1 Bft)
28.06.2012 19:50 24,6 C 23,2 C 21,7 C 26,3 C 26,3 C 1,7 C 62 % 89 % 45 % 1011,6 hPa 0,0 l/m 2,7 km/h (1 Bft) O-NO 67 0 min 0,0 UV-I 16,8 C 26,3 C 3,1 km/h (1 Bft)
28.06.2012 19:55 24,5 C 23,2 C 21,1 C 25,9 C 25,9 C 1,4 C 62 % 89 % 37 % 1011,6 hPa 0,0 l/m 3,2 km/h (1 Bft) O 90 0 min 0,0 UV-I 16,7 C 25,9 C 3,7 km/h (1 Bft)
28.06.2012 20:00 24,3 C 23,2 C 21,1 C 25,6 C 25,6 C 1,3 C 63 % 90 % 34 % 1011,6 hPa 0,0 l/m 2,9 km/h (1 Bft) O-NO 67 0 min 0,0 UV-I 16,8 C 25,6 C 2,1 km/h (1 Bft)
28.06.2012 20:11 24,0 C 23,2 C 20,8 C 24,7 C 24,7 C 0,7 C 64 % 90 % 18 % 1011,6 hPa 0,0 l/m 2,4 km/h (1 Bft) N 0 0 min 0,0 UV-I 16,8 C 24,7 C 2,9 km/h (1 Bft)
28.06.2012 20:20 23,7 C 23,2 C 20,4 C 24,0 C 24,0 C 0,3 C 66 % 90 % 8 % 1011,6 hPa 0,0 l/m 1,4 km/h (1 Bft) O-NO 67 0 min 0,0 UV-I 17,0 C 24,0 C 1,8 km/h (1 Bft)
28.06.2012 20:25 23,5 C 23,2 C 20,3 C 23,8 C 23,8 C 0,3 C 67 % 91 % 8 % 1011,5 hPa 0,0 l/m 1,6 km/h (1 Bft) O-NO 67 0 min 0,0 UV-I 17,0 C 23,8 C 2,4 km/h (1 Bft)
28.06.2012 20:30 23,4 C 23,2 C 20,1 C 23,7 C 23,7 C 0,3 C 67 % 91 % 8 % 1011,5 hPa 0,0 l/m 1,8 km/h (1 Bft) O-NO 67 0 min 0,0 UV-I 16,9 C 23,7 C 1,8 km/h (1 Bft)
28.06.2012 20:35 23,3 C 23,2 C 20,0 C 23,5 C 23,5 C 0,2 C 68 % 91 % 5 % 1011,5 hPa 0,0 l/m 1,1 km/h (1 Bft) O-NO 67 0 min 0,0 UV-I 17,1 C 23,5 C 0,0 km/h (0 Bft)
28.06.2012 20:40 23,2 C 23,2 C 19,9 C 23,3 C 23,3 C 0,1 C 68 % 91 % 3 % 1011,5 hPa 0,0 l/m 0,5 km/h (0 Bft) O-NO 67 0 min 0,0 UV-I 17,0 C 23,3 C 2,7 km/h (1 Bft)
28.06.2012 20:45 23,0 C 23,2 C 19,9 C 23,1 C 23,1 C 0,1 C 69 % 92 % 3 % 1011,4 hPa 0,0 l/m 1,6 km/h (1 Bft) O-NO 67 0 min 0,0 UV-I 17,0 C 23,1 C 2,9 km/h (1 Bft)
28.06.2012 20:50 22,9 C 23,2 C 19,8 C 22,9 C 22,8 C 0,0 C 69 % 92 % 0 % 1011,4 hPa 0,0 l/m 2,6 km/h (1 Bft) O-SO 112 0 min 0,0 UV-I 16,9 C 22,8 C 3,7 km/h (1 Bft)
28.06.2012 20:55 22,9 C 23,2 C 19,9 C 22,8 C 22,7 C 0,0 C 68 % 91 % 0 % 1011,4 hPa 0,0 l/m 3,2 km/h (1 Bft) O-NO 67 0 min 0,0 UV-I 16,7 C 22,7 C 3,1 km/h (1 Bft)
28.06.2012 21:00 22,9 C 23,2 C 19,9 C 22,8 C 22,5 C 0,0 C 69 % 92 % 0 % 1011,4 hPa 0,0 l/m 2,9 km/h (1 Bft) O-NO 67 0 min 0,0 UV-I 16,9 C 22,5 C 2,4 km/h (1 Bft)
28.06.2012 21:05 22,6 C 23,2 C 19,6 C 22,4 C 22,1 C 0,0 C 70 % 92 % 0 % 1011,4 hPa 0,0 l/m 2,1 km/h (1 Bft) O 90 0 min 0,0 UV-I 16,8 C 22,1 C 4,2 km/h (1 Bft)
28.06.2012 21:10 22,4 C 23,2 C 19,6 C 22,3 C 22,0 C 0,0 C 69 % 92 % 0 % 1011,4 hPa 0,0 l/m 2,6 km/h (1 Bft) O-NO 67 0 min 0,0 UV-I 16,4 C 22,0 C 4,8 km/h (1 Bft)
28.06.2012 21:15 22,3 C 23,2 C 19,6 C 22,1 C 21,8 C 0,0 C 70 % 92 % 0 % 1011,4 hPa 0,0 l/m 3,2 km/h (1 Bft) O-NO 67 0 min 0,0 UV-I 16,6 C 21,8 C 2,1 km/h (1 Bft)
28.06.2012 21:20 22,2 C 23,2 C 19,6 C 22,0 C 21,6 C 0,0 C 70 % 92 % 0 % 1011,4 hPa 0,0 l/m 2,3 km/h (1 Bft) W 270 0 min 0,0 UV-I 16,5 C 21,6 C 2,4 km/h (1 Bft)
28.06.2012 21:25 22,0 C 23,2 C 19,5 C 21,7 C 21,2 C 0,0 C 71 % 91 % 0 % 1011,2 hPa 0,0 l/m 0,8 km/h (0 Bft) O-NO 67 0 min 0,0 UV-I 16,5 C 21,2 C 1,6 km/h (1 Bft)
28.06.2012 21:30 21,8 C 23,2 C 19,4 C 21,5 C 21,0 C 0,0 C 72 % 92 % 0 % 1011,2 hPa 0,0 l/m 0,8 km/h (0 Bft) O-NO 67 0 min 0,0 UV-I 16,5 C 21,0 C 2,3 km/h (1 Bft)
28.06.2012 21:35 21,5 C 23,2 C 19,3 C 21,2 C 20,7 C 0,0 C 73 % 92 % 0 % 1011,2 hPa 0,0 l/m 1,3 km/h (1 Bft) SO 135 0 min 0,0 UV-I 16,4 C 20,7 C 2,3 km/h (1 Bft)
28.06.2012 21:40 21,3 C 23,2 C 19,2 C 21,1 C 20,7 C 0,0 C 73 % 92 % 0 % 1011,2 hPa 0,0 l/m 1,1 km/h (1 Bft) O-NO 67 0 min 0,0 UV-I 16,3 C 20,7 C 0,0 km/h (0 Bft)
28.06.2012 21:45 21,1 C 23,2 C 19,1 C 20,8 C 20,3 C 0,0 C 74 % 92 % 0 % 1011,5 hPa 0,0 l/m 0,3 km/h (0 Bft) NO 45 0 min 0,0 UV-I 16,3 C 20,3 C 0,0 km/h (0 Bft)
28.06.2012 21:50 21,0 C 23,2 C 19,1 C 20,7 C 20,0 C 0,0 C 74 % 92 % 0 % 1011,5 hPa 0,0 l/m 0,0 km/h (0 Bft) N 360 0 min 0,0 UV-I 16,2 C 20,0 C 0,0 km/h (0 Bft)
28.06.2012 21:55 20,8 C 23,2 C 18,9 C 20,4 C 19,5 C 0,0 C 75 % 92 % 0 % 1011,5 hPa 0,0 l/m 0,0 km/h (0 Bft) N 360 0 min 0,0 UV-I 16,2 C 19,5 C 0,0 km/h (0 Bft)
28.06.2012 22:00 20,7 C 23,2 C 18,9 C 20,2 C 19,3 C 0,0 C 75 % 92 % 0 % 1011,5 hPa 0,0 l/m 0,0 km/h (0 Bft) N 360 0 min 0,0 UV-I 16,1 C 19,3 C 0,0 km/h (0 Bft)
28.06.2012 22:11 20,3 C 23,2 C 18,7 C 19,8 C 18,8 C 0,0 C 77 % 93 % 0 % 1011,8 hPa 0,0 l/m 0,0 km/h (0 Bft) N 0 0 min 0,0 UV-I 16,1 C 18,8 C 0,0 km/h (0 Bft)
28.06.2012 22:20 19,9 C 23,2 C 18,6 C 19,5 C 18,6 C 0,0 C 78 % 93 % 0 % 1011,8 hPa 0,0 l/m 0,0 km/h (0 Bft) NO 45 0 min 0,0 UV-I 15,9 C 18,6 C 0,0 km/h (0 Bft)
28.06.2012 22:25 19,8 C 23,2 C 18,5 C 19,4 C 18,5 C 0,0 C 78 % 93 % 0 % 1011,8 hPa 0,0 l/m 0,0 km/h (0 Bft) O-NO 67 0 min 0,0 UV-I 15,8 C 18,5 C 0,0 km/h (0 Bft)
28.06.2012 22:30 19,6 C 23,2 C 18,4 C 19,2 C 18,4 C 0,0 C 79 % 93 % 0 % 1011,8 hPa 0,0 l/m 0,0 km/h (0 Bft) O-NO 67 0 min 0,0 UV-I 15,9 C 18,4 C 0,0 km/h (0 Bft)
28.06.2012 22:35 19,5 C 23,2 C 18,4 C 19,1 C 18,3 C 0,0 C 79 % 93 % 0 % 1011,8 hPa 0,0 l/m 0,0 km/h (0 Bft) O-NO 67 0 min 0,0 UV-I 15,8 C 18,3 C 0,0 km/h (0 Bft)
28.06.2012 22:40 19,4 C 23,2 C 18,4 C 19,0 C 18,2 C 0,0 C 80 % 93 % 0 % 1011,8 hPa 0,0 l/m 0,0 km/h (0 Bft) N-NW 337 0 min 0,0 UV-I 15,9 C 18,2 C 0,0 km/h (0 Bft)
28.06.2012 22:45 19,3 C 23,2 C 18,3 C 18,9 C 18,1 C 0,0 C 80 % 93 % 0 % 1011,6 hPa 0,0 l/m 0,0 km/h (0 Bft) N-NO 22 0 min 0,0 UV-I 15,8 C 18,1 C 0,0 km/h (0 Bft)
28.06.2012 22:50 19,1 C 23,2 C 18,3 C 18,8 C 18,1 C 0,0 C 80 % 93 % 0 % 1011,6 hPa 0,0 l/m 0,0 km/h (0 Bft) NO 45 0 min 0,0 UV-I 15,6 C 18,1 C 0,0 km/h (0 Bft)
28.06.2012 22:55 18,9 C 23,2 C 18,2 C 18,6 C 17,9 C 0,0 C 80 % 93 % 0 % 1011,6 hPa 0,0 l/m 0,0 km/h (0 Bft) NO 45 0 min 0,0 UV-I 15,4 C 17,9 C 0,0 km/h (0 Bft)
28.06.2012 23:00 18,9 C 23,2 C 18,3 C 18,6 C 17,9 C 0,0 C 81 % 93 % 0 % 1011,6 hPa 0,0 l/m 0,0 km/h (0 Bft) W 270 0 min 0,0 UV-I 15,6 C 17,9 C 0,0 km/h (0 Bft)
28.06.2012 23:06 18,6 C 23,2 C 18,1 C 18,3 C 17,7 C 0,0 C 81 % 93 % 0 % 1011,4 hPa 0,0 l/m 0,0 km/h (0 Bft) N 0 0 min 0,0 UV-I 15,3 C 17,7 C 0,0 km/h (0 Bft)
28.06.2012 23:20 18,3 C 23,2 C 18,0 C 18,0 C 17,5 C 0,0 C 82 % 93 % 0 % 1011,4 hPa 0,0 l/m 0,0 km/h (0 Bft) O 90 0 min 0,0 UV-I 15,2 C 17,5 C 0,0 km/h (0 Bft)
28.06.2012 23:25 18,2 C 23,2 C 18,0 C 18,0 C 17,5 C 0,0 C 82 % 93 % 0 % 1010,9 hPa 0,0 l/m 0,0 km/h (0 Bft) O-NO 67 0 min 0,0 UV-I 15,1 C 17,5 C 0,0 km/h (0 Bft)
28.06.2012 23:30 18,0 C 23,2 C 18,0 C 17,8 C 17,4 C 0,0 C 82 % 93 % 0 % 1010,9 hPa 0,0 l/m 0,0 km/h (0 Bft) N-NO 22 0 min 0,0 UV-I 14,9 C 17,4 C 0,0 km/h (0 Bft)
28.06.2012 23:35 18,0 C 23,2 C 18,1 C 17,8 C 17,4 C 0,0 C 82 % 93 % 0 % 1010,9 hPa 0,0 l/m 0,0 km/h (0 Bft) SW 225 0 min 0,0 UV-I 14,9 C 17,4 C 0,0 km/h (0 Bft)
28.06.2012 23:40 17,9 C 23,2 C 18,0 C 17,7 C 17,3 C 0,0 C 82 % 93 % 0 % 1010,9 hPa 0,0 l/m 0,0 km/h (0 Bft) NW 315 0 min 0,0 UV-I 14,8 C 17,3 C 0,0 km/h (0 Bft)
28.06.2012 23:45 17,7 C 23,2 C 17,9 C 17,5 C 17,2 C 0,0 C 83 % 93 % 0 % 1011,1 hPa 0,0 l/m 0,0 km/h (0 Bft) NW 315 0 min 0,0 UV-I 14,8 C 17,2 C 0,0 km/h (0 Bft)
28.06.2012 23:50 17,7 C 23,2 C 17,9 C 17,5 C 17,2 C 0,0 C 83 % 93 % 0 % 1011,1 hPa 0,0 l/m 0,0 km/h (0 Bft) O 90 0 min 0,0 UV-I 14,8 C 17,2 C 0,0 km/h (0 Bft)
28.06.2012 23:55 17,5 C 23,2 C 17,9 C 17,3 C 17,0 C 0,0 C 83 % 93 % 0 % 1011,1 hPa 0,0 l/m 0,0 km/h (0 Bft) O 90 0 min 0,0 UV-I 14,6 C 17,0 C 0,0 km/h (0 Bft)
_ Min-Zeit 04:40 10:25 04:11 04:20 04:25 02:20 17:55 19:45 00:00 23:25 - 00:11 - - - 00:00 04:20 04:25 00:00
Minimum _ 14,2 C 22,0 C 15,8 C 14,2 C 14,0 C 0,0 C 51 % 89 % 0 % 1010,9 hPa - 0,0 km/h (0 Bft) - - - 0,0 UV-I 12,7 C 14,0 C 0,0 km/h (0 Bft)
_ Max-Zeit 17:35 18:50 19:45 17:20 17:20 10:45 09:00 02:25 09:00 09:11 00:00 19:35 - - 13:20 13:45 16:00 17:20 13:20
Maximum _ 27,7 C 23,2 C 21,9 C 32,4 C 32,4 C 6,0 C 93 % 96 % 100 % 1015,4 hPa 0,0 l/m 4,5 km/h
O-NO (1 Bft)
- - 14 min 0,1 UV-I 18,1 C 32,4 C 9,8 km/h
SW (2 Bft)
Durchschnitt _ 20,1 C 22,5 C 17,8 C 22,0 C 22,0 C 1,9 C 77 % 94 % 45 % 1013,7 hPa #0,0 l/m 1,1 km/h (1 Bft) W-SW - #8:30 h 0,1 UV-I 15,6 C 22,0 C 1,7 km/h (1 Bft)
2012 www.wetterstation-wechselburg.de